createdAt,value
2023-01-01T00:00:49.325Z,100599.41
2023-01-01T00:03:17.173Z,100597.53
2023-01-01T00:05:44.928Z,100596.22
2023-01-01T00:08:12.648Z,100595.56
2023-01-01T00:10:41.748Z,100597.44
2023-01-01T00:13:09.544Z,100601.22
2023-01-01T00:15:37.281Z,100596.41
2023-01-01T00:18:05.284Z,100605.16
2023-01-01T00:20:35.471Z,100599.13
2023-01-01T00:23:04.013Z,100610.91
2023-01-01T00:25:32.502Z,100605.22
2023-01-01T00:28:02.085Z,100607.78
2023-01-01T00:30:30.079Z,100609.56
2023-01-01T00:32:57.796Z,100605.34
2023-01-01T00:35:27.151Z,100617.59
2023-01-01T00:37:55.713Z,100626.16
2023-01-01T00:40:23.649Z,100636.78
2023-01-01T00:42:51.425Z,100631.78
2023-01-01T00:45:22.555Z,100632.88
2023-01-01T00:47:51.365Z,100624.97
2023-01-01T00:50:19.603Z,100620.47
2023-01-01T00:52:48.883Z,100619.69
2023-01-01T00:55:17.110Z,100615.31
2023-01-01T00:57:44.846Z,100614.53
2023-01-01T01:00:14.983Z,100601.34
2023-01-01T01:02:44.761Z,100594.63
2023-01-01T01:05:12.746Z,100593.81
2023-01-01T01:07:40.977Z,100602.59
2023-01-01T01:10:09.802Z,100593.72
2023-01-01T01:12:37.639Z,100605.00
2023-01-01T01:15:07.726Z,100601.56
2023-01-01T01:17:35.715Z,100608.31
2023-01-01T01:20:06.389Z,100619.91
2023-01-01T01:22:35.549Z,100626.00
2023-01-01T01:25:03.510Z,100626.72
2023-01-01T01:27:31.331Z,100640.50
2023-01-01T01:29:59.071Z,100651.47
2023-01-01T01:32:26.803Z,100648.19
2023-01-01T01:34:54.534Z,100646.44
2023-01-01T01:37:23.594Z,100649.25
2023-01-01T01:39:53.973Z,100657.31
2023-01-01T01:42:22.619Z,100658.28
2023-01-01T01:44:57.070Z,100658.31
2023-01-01T01:47:33.397Z,100653.06
2023-01-01T01:50:09.241Z,100665.38
2023-01-01T01:52:42.398Z,100665.31
2023-01-01T01:55:11.584Z,100677.72
2023-01-01T01:57:42.048Z,100679.75
2023-01-01T02:00:11.873Z,100665.56
2023-01-01T02:02:45.623Z,100680.69
2023-01-01T02:05:14.235Z,100690.47
2023-01-01T02:07:44.116Z,100685.31
2023-01-01T02:10:12.026Z,100699.41
2023-01-01T02:12:40.005Z,100696.72
2023-01-01T02:15:10.035Z,100692.63
2023-01-01T02:17:45.313Z,100688.44
2023-01-01T02:20:26.624Z,100681.19
2023-01-01T02:23:24.616Z,100676.13
2023-01-01T02:26:08.849Z,100677.91
2023-01-01T02:28:53.948Z,100675.88
2023-01-01T02:31:26.839Z,100681.94
2023-01-01T02:33:58.070Z,100681.19
2023-01-01T02:36:27.718Z,100683.13
2023-01-01T02:38:58.975Z,100688.34
2023-01-01T02:41:31.171Z,100679.50
2023-01-01T02:46:32.749Z,100679.59
2023-01-01T02:49:06.286Z,100684.19
2023-01-01T02:51:48.600Z,100685.16
2023-01-01T02:54:26.479Z,100693.75
2023-01-01T02:57:10.268Z,100678.81
2023-01-01T03:00:13.659Z,100689.34
2023-01-01T03:02:53.489Z,100691.44
2023-01-01T03:05:29.759Z,100685.44
2023-01-01T03:08:05.620Z,100685.53
2023-01-01T03:10:46.723Z,100686.63
2023-01-01T03:13:22.357Z,100687.41
2023-01-01T03:16:00.727Z,100674.31
2023-01-01T03:18:35.073Z,100676.03
2023-01-01T03:21:06.175Z,100680.25
2023-01-01T03:23:38.357Z,100671.63
2023-01-01T03:26:09.532Z,100670.03
2023-01-01T03:28:41.555Z,100668.13
2023-01-01T03:31:12.044Z,100677.84
2023-01-01T03:33:44.223Z,100677.00
2023-01-01T03:36:15.582Z,100686.53
2023-01-01T03:38:48.150Z,100701.97
2023-01-01T03:41:22.499Z,100699.66
2023-01-01T03:43:55.697Z,100699.69
2023-01-01T03:46:29.183Z,100702.44
2023-01-01T03:49:03.050Z,100703.19
2023-01-01T03:51:50.598Z,100693.69
2023-01-01T03:54:29.455Z,100698.78
2023-01-01T03:57:04.542Z,100693.53
2023-01-01T03:59:38.623Z,100698.69
2023-01-01T04:02:09.795Z,100704.16
2023-01-01T04:04:38.517Z,100699.66
2023-01-01T04:07:14.743Z,100700.63
2023-01-01T04:09:49.844Z,100691.91
2023-01-01T04:12:19.114Z,100687.50
2023-01-01T04:14:47.532Z,100695.38
2023-01-01T04:17:16.836Z,100696.34
2023-01-01T04:19:47.473Z,100701.59
2023-01-01T04:22:23.129Z,100709.59
2023-01-01T04:24:50.969Z,100696.44
2023-01-01T04:27:18.705Z,100696.53
2023-01-01T04:29:46.406Z,100704.31
2023-01-01T04:32:14.159Z,100697.25
2023-01-01T04:34:43.356Z,100705.31
2023-01-01T04:37:13.424Z,100707.06
2023-01-01T04:39:41.861Z,100706.97
2023-01-01T04:42:09.992Z,100708.81
2023-01-01T04:44:37.757Z,100709.59
2023-01-01T04:47:05.930Z,100706.84
2023-01-01T04:49:33.662Z,100716.59
2023-01-01T04:52:02.918Z,100714.13
2023-01-01T04:54:30.765Z,100715.94
2023-01-01T04:56:58.536Z,100720.38
2023-01-01T04:59:26.253Z,100717.56
2023-01-01T05:01:54.081Z,100728.09
2023-01-01T05:04:21.929Z,100726.38
2023-01-01T05:06:49.673Z,100716.84
2023-01-01T05:09:18.731Z,100718.59
2023-01-01T05:11:46.603Z,100733.59
2023-01-01T05:14:14.388Z,100722.16
2023-01-01T05:16:42.354Z,100724.84
2023-01-01T05:19:11.661Z,100712.69
2023-01-01T05:21:41.531Z,100720.72
2023-01-01T05:24:11.093Z,100721.59
2023-01-01T05:26:42.723Z,100728.63
2023-01-01T05:29:15.968Z,100732.16
2023-01-01T05:31:46.280Z,100740.03
2023-01-01T05:34:14.029Z,100740.09
2023-01-01T05:36:41.732Z,100745.25
2023-01-01T05:39:11.824Z,100755.91
2023-01-01T05:41:41.054Z,100757.56
2023-01-01T05:44:10.382Z,100752.22
2023-01-01T05:46:38.483Z,100756.69
2023-01-01T05:49:06.523Z,100748.00
2023-01-01T05:54:00.924Z,100765.47
2023-01-01T05:56:29.016Z,100756.69
2023-01-01T05:58:58.140Z,100775.94
2023-01-01T06:01:29.588Z,100779.53
2023-01-01T06:03:58.790Z,100773.53
2023-01-01T06:06:28.837Z,100783.19
2023-01-01T06:08:59.142Z,100790.25
2023-01-01T06:11:28.403Z,100799.72
2023-01-01T06:13:59.080Z,100804.97
2023-01-01T06:16:27.953Z,100802.47
2023-01-01T06:18:55.836Z,100803.41
2023-01-01T06:21:26.495Z,100809.44
2023-01-01T06:23:56.640Z,100804.22
2023-01-01T06:26:26.323Z,100798.13
2023-01-01T06:28:54.102Z,100806.84
2023-01-01T06:31:24.163Z,100810.44
2023-01-01T06:33:52.721Z,100806.03
2023-01-01T06:36:21.994Z,100822.69
2023-01-01T06:38:52.550Z,100827.06
2023-01-01T06:41:22.033Z,100829.69
2023-01-01T06:43:50.212Z,100825.25
2023-01-01T06:46:20.105Z,100826.13
2023-01-01T06:48:50.709Z,100836.69
2023-01-01T06:51:20.280Z,100836.72
2023-01-01T06:53:48.629Z,100835.88
2023-01-01T06:56:16.457Z,100840.22
2023-01-01T06:58:44.403Z,100840.28
2023-01-01T07:01:15.247Z,100841.13
2023-01-01T07:03:45.571Z,100844.63
2023-01-01T07:06:14.699Z,100847.31
2023-01-01T07:08:42.501Z,100843.91
2023-01-01T07:11:10.398Z,100849.25
2023-01-01T07:13:38.088Z,100853.56
2023-01-01T07:16:12.374Z,100854.44
2023-01-01T07:18:41.744Z,100851.91
2023-01-01T07:21:29.630Z,100855.31
2023-01-01T07:23:58.302Z,100854.41
2023-01-01T07:26:26.906Z,100870.22
2023-01-01T07:28:55.723Z,100861.53
2023-01-01T07:31:25.237Z,100876.41
2023-01-01T07:33:52.953Z,100879.03
2023-01-01T07:36:20.622Z,100877.22
2023-01-01T07:38:49.679Z,100873.03
2023-01-01T07:41:17.402Z,100889.66
2023-01-01T07:43:45.225Z,100894.81
2023-01-01T07:46:16.164Z,100901.03
2023-01-01T07:48:43.914Z,100902.81
2023-01-01T07:51:11.687Z,100907.28
2023-01-01T07:53:39.411Z,100915.94
2023-01-01T07:56:09.483Z,100933.38
2023-01-01T07:58:40.029Z,100925.41
2023-01-01T08:01:11.093Z,100931.69
2023-01-01T08:03:39.110Z,100935.19
2023-01-01T08:06:09.094Z,100939.44
2023-01-01T08:08:36.893Z,100942.16
2023-01-01T08:11:05.699Z,100929.84
2023-01-01T08:13:34.807Z,100940.28
2023-01-01T08:16:02.620Z,100940.13
2023-01-01T08:18:30.974Z,100952.38
2023-01-01T08:20:58.739Z,100938.28
2023-01-01T08:23:26.451Z,100942.69
2023-01-01T08:25:54.172Z,100932.97
2023-01-01T08:28:21.851Z,100935.75
2023-01-01T08:30:51.414Z,100954.09
2023-01-01T08:33:19.118Z,100955.00
2023-01-01T08:35:53.672Z,100961.09
2023-01-01T08:38:22.108Z,100974.16
2023-01-01T08:40:49.889Z,100959.22
2023-01-01T08:43:17.656Z,100972.47
2023-01-01T08:45:46.344Z,100976.91
2023-01-01T08:48:15.470Z,100977.81
2023-01-01T08:50:43.250Z,100982.19
2023-01-01T08:53:11.006Z,100979.56
2023-01-01T08:55:38.908Z,100969.03
2023-01-01T08:58:07.415Z,100956.69
2023-01-01T09:00:35.591Z,100954.09
2023-01-01T09:03:03.639Z,100955.72
2023-01-01T09:05:32.934Z,100957.41
2023-01-01T09:08:00.675Z,100966.16
2023-01-01T09:10:28.430Z,100975.97
2023-01-01T09:12:56.204Z,100978.38
2023-01-01T09:15:24.341Z,100981.00
2023-01-01T09:17:52.126Z,100978.50
2023-01-01T09:20:19.852Z,100977.53
2023-01-01T09:22:49.179Z,100996.81
2023-01-01T09:25:17.122Z,100990.75
2023-01-01T09:27:45.384Z,100996.91
2023-01-01T09:30:13.874Z,101011.72
2023-01-01T09:32:41.670Z,101008.25
2023-01-01T09:35:10.986Z,101014.44
2023-01-01T09:37:38.753Z,101031.03
2023-01-01T09:40:09.887Z,101036.44
2023-01-01T09:42:44.164Z,101048.72
2023-01-01T09:45:23.411Z,101044.41
2023-01-01T09:47:54.489Z,101050.53
2023-01-01T09:50:24.962Z,101052.22
2023-01-01T09:52:56.749Z,101054.06
2023-01-01T09:55:30.046Z,101050.53
2023-01-01T09:57:58.569Z,101051.28
2023-01-01T10:00:27.547Z,101053.09
2023-01-01T10:03:06.129Z,101052.13
2023-01-01T10:05:41.293Z,101054.59
2023-01-01T10:08:22.954Z,101050.22
2023-01-01T10:11:00.234Z,101055.41
2023-01-01T10:13:33.546Z,101049.25
2023-01-01T10:16:05.509Z,101059.88
2023-01-01T10:18:38.309Z,101063.28
2023-01-01T10:21:11.730Z,101055.47
2023-01-01T10:23:45.426Z,101060.66
2023-01-01T10:26:18.177Z,101059.81
2023-01-01T10:28:56.293Z,101060.56
2023-01-01T10:31:33.024Z,101055.34
2023-01-01T10:34:16.817Z,101058.59
2023-01-01T10:36:45.162Z,101057.94
2023-01-01T10:39:16.591Z,101056.19
2023-01-01T10:41:46.767Z,101053.53
2023-01-01T10:44:17.617Z,101049.09
2023-01-01T10:46:49.048Z,101045.69
2023-01-01T10:49:16.892Z,101056.19
2023-01-01T10:51:46.907Z,101054.47
2023-01-01T10:54:31.913Z,101037.69
2023-01-01T10:57:01.864Z,101027.19
2023-01-01T10:59:36.630Z,101036.84
2023-01-01T11:02:20.538Z,101029.88
2023-01-01T11:04:49.059Z,101010.59
2023-01-01T11:07:28.717Z,101005.34
2023-01-01T11:10:04.013Z,100991.22
2023-01-01T11:15:31.239Z,100993.97
2023-01-01T11:18:05.510Z,100999.16
2023-01-01T11:20:35.345Z,101006.31
2023-01-01T11:23:19.873Z,101010.63
2023-01-01T11:26:08.177Z,101025.44
2023-01-01T11:28:37.767Z,101033.34
2023-01-01T11:31:15.225Z,101036.84
2023-01-01T11:33:47.422Z,101040.41
2023-01-01T11:36:22.899Z,101047.28
2023-01-01T11:38:52.153Z,101056.94
2023-01-01T11:41:19.964Z,101055.38
2023-01-01T11:43:50.068Z,101061.59
2023-01-01T11:46:24.820Z,101061.59
2023-01-01T11:48:54.830Z,101052.00
2023-01-01T11:51:31.782Z,101053.78
2023-01-01T11:54:23.995Z,101062.41
2023-01-01T11:56:55.806Z,101059.88
2023-01-01T11:59:28.767Z,101055.47
2023-01-01T12:02:00.434Z,101054.63
2023-01-01T12:04:32.654Z,101042.31
2023-01-01T12:07:06.410Z,101045.75
2023-01-01T12:09:41.840Z,101048.31
2023-01-01T12:12:11.961Z,101038.75
2023-01-01T12:14:49.383Z,101030.03
2023-01-01T12:17:24.018Z,101037.94
2023-01-01T12:20:00.465Z,101026.38
2023-01-01T12:22:28.293Z,101020.19
2023-01-01T12:24:56.313Z,101022.72
2023-01-01T12:27:37.953Z,101017.56
2023-01-01T12:30:21.637Z,101008.69
2023-01-01T12:33:08.607Z,101010.50
2023-01-01T12:35:49.825Z,101005.09
2023-01-01T12:38:31.814Z,101001.41
2023-01-01T12:41:10.137Z,100998.84
2023-01-01T12:43:49.909Z,101002.28
2023-01-01T12:46:38.370Z,100997.97
2023-01-01T12:49:30.757Z,100996.22
2023-01-01T12:52:10.327Z,100994.50
2023-01-01T12:55:06.473Z,100988.25
2023-01-01T12:57:40.950Z,100988.13
2023-01-01T13:00:16.052Z,100990.88
2023-01-01T13:02:51.641Z,100989.13
2023-01-01T13:05:23.796Z,100988.31
2023-01-01T13:07:56.757Z,100997.97
2023-01-01T13:10:29.293Z,101004.81
2023-01-01T13:12:57.704Z,101003.19
2023-01-01T13:15:48.519Z,101003.22
2023-01-01T13:18:36.950Z,101000.59
2023-01-01T13:21:22.075Z,101006.06
2023-01-01T13:23:53.430Z,101002.41
2023-01-01T13:26:41.437Z,100999.81
2023-01-01T13:29:32.600Z,100998.94
2023-01-01T13:32:06.376Z,101002.38
2023-01-01T13:34:40.254Z,100999.84
2023-01-01T13:37:28.654Z,101005.94
2023-01-01T13:39:58.197Z,101012.19
2023-01-01T13:42:39.837Z,101006.94
2023-01-01T13:45:30.356Z,101006.84
2023-01-01T13:48:19.391Z,101004.31
2023-01-01T13:51:00.708Z,100998.41
2023-01-01T13:53:41.611Z,100986.88
2023-01-01T13:56:25.418Z,100991.31
2023-01-01T13:59:13.572Z,100986.94
2023-01-01T14:01:52.689Z,100983.38
2023-01-01T14:04:39.692Z,100988.53
2023-01-01T14:07:49.759Z,100988.63
2023-01-01T14:10:18.465Z,100986.88
2023-01-01T14:12:46.869Z,100989.66
2023-01-01T14:15:24.193Z,100988.78
2023-01-01T14:17:52.721Z,100991.34
2023-01-01T14:20:23.840Z,100989.72
2023-01-01T14:22:53.909Z,100986.09
2023-01-01T14:25:27.858Z,100992.28
2023-01-01T14:27:57.648Z,100994.03
2023-01-01T14:30:26.556Z,101001.22
2023-01-01T14:32:58.527Z,100991.59
2023-01-01T14:35:26.955Z,100994.28
2023-01-01T14:37:56.255Z,100997.81
2023-01-01T14:40:29.408Z,100992.69
2023-01-01T14:43:02.080Z,100999.72
2023-01-01T14:45:33.114Z,100998.03
2023-01-01T14:48:01.389Z,100998.13
2023-01-01T14:50:31.327Z,101002.53
2023-01-01T14:53:04.837Z,101003.59
2023-01-01T14:55:35.938Z,101006.28
2023-01-01T14:58:04.118Z,101007.28
2023-01-01T15:00:33.885Z,101009.94
2023-01-01T15:03:07.343Z,101011.72
2023-01-01T15:05:36.560Z,101012.66
2023-01-01T15:08:08.880Z,101013.56
2023-01-01T15:10:39.358Z,101009.31
2023-01-01T15:13:07.886Z,101018.13
2023-01-01T15:15:41.760Z,101016.38
2023-01-01T15:18:36.800Z,101015.66
2023-01-01T15:21:06.869Z,101023.56
2023-01-01T15:23:37.834Z,101015.66
2023-01-01T15:26:09.122Z,101021.00
2023-01-01T15:28:39.349Z,101021.06
2023-01-01T15:31:07.545Z,101021.06
2023-01-01T15:33:35.283Z,101015.03
2023-01-01T15:36:03.902Z,101017.00
2023-01-01T15:38:35.251Z,101008.47
2023-01-01T15:41:24.326Z,101010.25
2023-01-01T15:43:52.064Z,100998.09
2023-01-01T15:46:22.738Z,101005.97
2023-01-01T15:48:53.843Z,101008.66
2023-01-01T15:51:24.240Z,101006.09
2023-01-01T15:53:57.437Z,101005.31
2023-01-01T15:56:29.147Z,101016.97
2023-01-01T15:59:05.317Z,101007.34
2023-01-01T16:01:39.757Z,101009.88
2023-01-01T16:04:11.283Z,101006.44
2023-01-01T16:06:44.818Z,101009.09
2023-01-01T16:09:13.981Z,101013.34
2023-01-01T16:11:44.015Z,101009.00
2023-01-01T16:14:12.131Z,101017.69
2023-01-01T16:16:41.367Z,101015.94
2023-01-01T16:19:15.748Z,101012.44
2023-01-01T16:21:43.460Z,100998.44
2023-01-01T16:24:14.182Z,101006.38
2023-01-01T16:26:43.493Z,101002.91
2023-01-01T16:29:11.668Z,100993.47
2023-01-01T16:31:40.644Z,100995.28
2023-01-01T16:34:12.369Z,100992.69
2023-01-01T16:36:40.074Z,100981.28
2023-01-01T16:39:07.871Z,100968.38
2023-01-01T16:41:35.555Z,100971.06
2023-01-01T16:44:04.679Z,100975.47
2023-01-01T16:46:33.438Z,100983.28
2023-01-01T16:49:01.515Z,100975.53
2023-01-01T16:51:30.493Z,100975.53
2023-01-01T16:54:00.718Z,100972.09
2023-01-01T16:56:29.097Z,100977.34
2023-01-01T16:59:02.753Z,100962.59
2023-01-01T17:01:32.725Z,100963.44
2023-01-01T17:04:00.997Z,100961.69
2023-01-01T17:06:28.893Z,100959.06
2023-01-01T17:08:56.654Z,100956.44
2023-01-01T17:11:24.848Z,100952.03
2023-01-01T17:13:52.954Z,100953.78
2023-01-01T17:16:27.067Z,100952.97
2023-01-01T17:19:15.463Z,100938.19
2023-01-01T17:21:43.702Z,100949.50
2023-01-01T17:24:11.748Z,100941.69
2023-01-01T17:26:39.659Z,100937.44
2023-01-01T17:29:07.890Z,100940.00
2023-01-01T17:31:36.350Z,100934.03
2023-01-01T17:34:05.583Z,100930.66
2023-01-01T17:36:33.292Z,100935.03
2023-01-01T17:39:01.057Z,100941.22
2023-01-01T17:41:28.783Z,100939.69
2023-01-01T17:43:57.029Z,100924.22
2023-01-01T17:46:28.270Z,100926.00
2023-01-01T17:48:57.041Z,100920.84
2023-01-01T17:51:27.036Z,100915.78
2023-01-01T17:53:55.334Z,100912.34
2023-01-01T17:56:24.534Z,100918.59
2023-01-01T17:58:54.214Z,100911.66
2023-01-01T18:01:30.642Z,100921.16
2023-01-01T18:04:00.798Z,100929.06
2023-01-01T18:06:30.790Z,100918.59
2023-01-01T18:09:00.159Z,100926.53
2023-01-01T18:11:29.747Z,100918.72
2023-01-01T18:13:58.032Z,100904.00
2023-01-01T18:16:26.453Z,100903.03
2023-01-01T18:18:54.983Z,100900.53
2023-01-01T18:21:24.545Z,100905.81
2023-01-01T18:23:55.502Z,100916.19
2023-01-01T18:26:24.817Z,100916.25
2023-01-01T18:28:53.305Z,100912.75
2023-01-01T18:31:23.076Z,100916.31
2023-01-01T18:33:51.412Z,100899.78
2023-01-01T18:36:21.754Z,100904.16
2023-01-01T18:38:58.208Z,100898.22
2023-01-01T18:41:41.787Z,100897.34
2023-01-01T18:44:18.084Z,100895.59
2023-01-01T18:46:46.743Z,100892.00
2023-01-01T18:49:14.496Z,100886.78
2023-01-01T18:51:44.191Z,100885.09
2023-01-01T18:54:14.385Z,100889.47
2023-01-01T18:56:42.202Z,100879.94
2023-01-01T18:59:22.247Z,100866.16
2023-01-01T19:01:50.236Z,100861.78
2023-01-01T19:04:19.566Z,100860.91
2023-01-01T19:06:47.749Z,100863.75
2023-01-01T19:09:23.210Z,100847.41
2023-01-01T19:11:52.477Z,100842.25
2023-01-01T19:14:21.890Z,100841.47
2023-01-01T19:16:51.577Z,100837.06
2023-01-01T19:19:21.018Z,100832.69
2023-01-01T19:21:52.210Z,100824.03
2023-01-01T19:24:25.399Z,100824.06
2023-01-01T19:26:56.968Z,100815.41
2023-01-01T19:29:26.372Z,100817.03
2023-01-01T19:31:56.642Z,100805.75
2023-01-01T19:34:25.834Z,100803.94
2023-01-01T19:36:54.385Z,100796.97
2023-01-01T19:39:23.468Z,100798.66
2023-01-01T19:41:52.894Z,100802.16
2023-01-01T19:44:25.005Z,100800.28
2023-01-01T19:46:53.228Z,100794.19
2023-01-01T19:49:21.751Z,100785.44
2023-01-01T19:51:49.939Z,100785.44
2023-01-01T19:54:17.831Z,100776.72
2023-01-01T19:56:47.928Z,100771.44
2023-01-01T19:59:15.989Z,100775.84
2023-01-01T20:01:43.852Z,100761.84
2023-01-01T20:04:11.795Z,100746.13
2023-01-01T20:06:39.643Z,100742.69
2023-01-01T20:09:07.441Z,100742.63
2023-01-01T20:11:36.016Z,100740.06
2023-01-01T20:14:05.151Z,100724.31
2023-01-01T20:16:34.560Z,100727.81
2023-01-01T20:19:02.278Z,100730.44
2023-01-01T20:21:47.567Z,100719.13
2023-01-01T20:24:17.391Z,100715.59
2023-01-01T20:26:45.149Z,100714.72
2023-01-01T20:29:19.318Z,100711.28
2023-01-01T20:31:47.357Z,100708.63
2023-01-01T20:34:15.145Z,100712.91
2023-01-01T20:37:00.404Z,100713.78
2023-01-01T20:39:28.524Z,100715.53
2023-01-01T20:41:57.267Z,100722.56
2023-01-01T20:44:27.596Z,100726.00
2023-01-01T20:46:56.001Z,100709.59
2023-01-01T20:49:24.880Z,100717.34
2023-01-01T20:51:54.173Z,100715.50
2023-01-01T20:54:23.522Z,100724.25
2023-01-01T20:56:51.356Z,100699.81
2023-01-01T20:59:37.030Z,100710.16
2023-01-01T21:02:08.142Z,100708.28
2023-01-01T21:04:38.358Z,100709.69
2023-01-01T21:07:06.797Z,100715.59
2023-01-01T21:09:34.518Z,100711.09
2023-01-01T21:12:02.387Z,100709.34
2023-01-01T21:14:30.221Z,100719.75
2023-01-01T21:16:58.035Z,100718.88
2023-01-01T21:19:28.583Z,100716.13
2023-01-01T21:21:57.923Z,100709.97
2023-01-01T21:24:28.311Z,100708.00
2023-01-01T21:27:01.116Z,100699.19
2023-01-01T21:29:32.028Z,100701.34
2023-01-01T21:32:11.316Z,100710.03
2023-01-01T21:34:43.295Z,100702.72
2023-01-01T21:37:37.097Z,100696.63
2023-01-01T21:40:39.610Z,100680.66
2023-01-01T21:43:25.579Z,100686.50
2023-01-01T21:45:54.830Z,100680.41
2023-01-01T21:48:29.024Z,100694.47
2023-01-01T21:50:58.150Z,100690.72
2023-01-01T21:53:30.114Z,100695.56
2023-01-01T21:55:58.750Z,100682.97
2023-01-01T21:58:45.878Z,100682.09
2023-01-01T22:01:26.760Z,100680.19
2023-01-01T22:04:03.466Z,100682.91
2023-01-01T22:06:38.199Z,100685.44
2023-01-01T22:09:17.045Z,100693.28
2023-01-01T22:11:45.321Z,100696.84
2023-01-01T22:14:15.465Z,100690.59
2023-01-01T22:16:43.998Z,100686.34
2023-01-01T22:19:15.900Z,100680.88
2023-01-01T22:21:46.180Z,100686.84
2023-01-01T22:24:31.204Z,100665.03
2023-01-01T22:27:19.017Z,100664.00
2023-01-01T22:29:47.475Z,100656.19
2023-01-01T22:32:20.572Z,100664.78
2023-01-01T22:34:49.478Z,100682.25
2023-01-01T22:37:20.590Z,100681.41
2023-01-01T22:39:49.674Z,100670.78
2023-01-01T22:42:20.051Z,100678.66
2023-01-01T22:44:56.977Z,100674.13
2023-01-01T22:47:31.923Z,100674.25
2023-01-01T22:50:01.093Z,100670.63
2023-01-01T22:52:30.394Z,100660.94
2023-01-01T22:54:58.303Z,100661.81
2023-01-01T22:57:26.059Z,100656.56
2023-01-01T22:59:54.423Z,100656.56
2023-01-01T23:02:22.232Z,100649.72
2023-01-01T23:04:49.981Z,100655.81
2023-01-01T23:07:17.775Z,100652.25
2023-01-01T23:09:47.245Z,100657.44
2023-01-01T23:12:16.079Z,100639.84
2023-01-01T23:15:02.633Z,100645.88
2023-01-01T23:17:30.425Z,100653.59
2023-01-01T23:19:58.337Z,100651.03
2023-01-01T23:22:28.350Z,100650.97
2023-01-01T23:24:57.895Z,100641.38
2023-01-01T23:27:25.885Z,100647.34
2023-01-01T23:29:55.467Z,100648.09
2023-01-01T23:32:23.306Z,100644.63
2023-01-01T23:34:51.061Z,100642.06
2023-01-01T23:37:18.871Z,100637.63
2023-01-01T23:39:49.339Z,100640.25
2023-01-01T23:42:18.450Z,100642.91
2023-01-01T23:44:46.319Z,100633.13
2023-01-01T23:47:14.632Z,100643.53
2023-01-01T23:49:43.646Z,100648.91
2023-01-01T23:52:11.539Z,100646.88
2023-01-01T23:54:39.707Z,100638.13
2023-01-01T23:57:07.439Z,100651.22
2023-01-01T23:59:36.523Z,100651.94
